createdAt,value
2018-08-22T00:01:35.904Z,19.26
2018-08-22T00:04:04.818Z,19.26
2018-08-22T00:06:33.716Z,19.20
2018-08-22T00:09:02.976Z,19.31
2018-08-22T00:11:31.703Z,19.41
2018-08-22T00:14:00.443Z,19.21
2018-08-22T00:16:29.238Z,19.11
2018-08-22T00:18:57.895Z,19.04
2018-08-22T00:21:26.558Z,19.09
2018-08-22T00:23:55.255Z,19.11
2018-08-22T00:26:23.910Z,19.11
2018-08-22T00:28:52.703Z,19.09
2018-08-22T00:31:21.513Z,19.09
2018-08-22T00:33:50.228Z,19.11
2018-08-22T00:36:19.630Z,19.09
2018-08-22T00:38:48.242Z,19.10
2018-08-22T00:41:16.903Z,19.12
2018-08-22T00:43:45.954Z,19.32
2018-08-22T00:46:14.598Z,19.23
2018-08-22T00:48:48.885Z,19.13
2018-08-22T00:51:39.513Z,19.01
2018-08-22T00:54:08.594Z,18.93
2018-08-22T00:56:37.616Z,18.89
2018-08-22T00:59:06.691Z,18.87
2018-08-22T01:01:35.480Z,18.87
2018-08-22T01:04:04.358Z,18.79
2018-08-22T01:06:33.115Z,18.60
2018-08-22T01:09:03.647Z,18.45
2018-08-22T01:11:32.378Z,18.38
2018-08-22T01:14:01.085Z,18.32
2018-08-22T01:16:29.802Z,18.37
2018-08-22T01:18:58.576Z,18.37
2018-08-22T01:21:27.316Z,18.36
2018-08-22T01:23:56.041Z,18.49
2018-08-22T01:26:24.848Z,18.53
2018-08-22T01:28:53.436Z,18.55
2018-08-22T01:31:22.068Z,18.49
2018-08-22T01:33:50.692Z,18.46
2018-08-22T01:36:19.290Z,18.52
2018-08-22T01:38:47.885Z,18.51
2018-08-22T01:41:16.509Z,18.45
2018-08-22T01:43:45.115Z,18.45
2018-08-22T01:46:13.705Z,18.37
2018-08-22T01:48:42.366Z,18.36
2018-08-22T01:51:11.098Z,18.37
2018-08-22T01:53:39.769Z,18.35
2018-08-22T01:56:08.511Z,18.34
2018-08-22T01:58:37.223Z,18.35
2018-08-22T02:01:06.017Z,18.32
2018-08-22T02:03:34.763Z,18.22
2018-08-22T02:06:03.476Z,18.13
2018-08-22T02:08:32.112Z,18.10
2018-08-22T02:11:00.683Z,18.14
2018-08-22T02:13:29.255Z,18.13
2018-08-22T02:15:57.910Z,18.18
2018-08-22T02:18:26.603Z,18.19
2018-08-22T02:20:55.288Z,18.22
2018-08-22T02:23:24.008Z,18.13
2018-08-22T02:25:52.718Z,18.04
2018-08-22T02:28:21.368Z,17.95
2018-08-22T02:30:49.988Z,17.88
2018-08-22T02:33:18.567Z,17.86
2018-08-22T02:35:47.237Z,17.86
2018-08-22T02:38:21.195Z,17.91
2018-08-22T02:40:49.775Z,17.90
2018-08-22T02:43:18.375Z,17.99
2018-08-22T02:45:47.042Z,17.98
2018-08-22T02:48:16.090Z,18.00
2018-08-22T02:50:44.834Z,17.99
2018-08-22T02:53:13.516Z,17.95
2018-08-22T02:55:42.449Z,17.98
2018-08-22T02:58:11.342Z,18.00
2018-08-22T03:00:40.085Z,18.01
2018-08-22T03:03:08.805Z,17.93
2018-08-22T03:05:37.559Z,17.93
2018-08-22T03:08:06.365Z,17.95
2018-08-22T03:10:34.969Z,17.96
2018-08-22T03:13:03.575Z,17.95
2018-08-22T03:15:32.167Z,17.86
2018-08-22T03:18:00.897Z,17.83
2018-08-22T03:20:29.716Z,17.66
2018-08-22T03:22:58.485Z,17.55
2018-08-22T03:25:27.290Z,17.46
2018-08-22T03:27:55.963Z,17.50
2018-08-22T03:30:24.624Z,17.54
2018-08-22T03:32:53.297Z,17.59
2018-08-22T03:35:21.955Z,17.48
2018-08-22T03:37:50.596Z,17.45
2018-08-22T03:40:19.210Z,17.46
2018-08-22T03:42:47.830Z,17.39
2018-08-22T03:45:16.433Z,17.37
2018-08-22T03:47:45.172Z,17.32
2018-08-22T03:50:13.963Z,17.39
2018-08-22T03:52:42.686Z,17.40
2018-08-22T03:55:11.467Z,17.41
2018-08-22T03:57:40.797Z,17.13
2018-08-22T04:00:10.096Z,17.19
2018-08-22T04:02:38.933Z,17.18
2018-08-22T04:05:07.787Z,17.16
2018-08-22T04:07:36.482Z,17.14
2018-08-22T04:10:05.405Z,17.17
2018-08-22T04:12:34.055Z,17.20
2018-08-22T04:15:02.698Z,17.19
2018-08-22T04:17:37.171Z,17.15
2018-08-22T04:20:06.686Z,17.04
2018-08-22T04:22:37.405Z,17.07
2018-08-22T04:25:06.563Z,17.10
2018-08-22T04:27:35.834Z,17.09
2018-08-22T04:30:05.001Z,17.13
2018-08-22T04:32:33.606Z,17.14
2018-08-22T04:35:02.280Z,17.16
2018-08-22T04:37:30.991Z,17.21
2018-08-22T04:39:59.703Z,17.28
2018-08-22T04:42:28.320Z,17.33
2018-08-22T04:44:56.946Z,17.40
2018-08-22T04:47:25.576Z,17.46
2018-08-22T04:49:54.165Z,17.59
2018-08-22T04:52:23.028Z,17.65
2018-08-22T04:54:51.853Z,17.65
2018-08-22T04:57:20.481Z,17.65
2018-08-22T04:59:49.253Z,17.78
2018-08-22T05:02:17.881Z,17.91
2018-08-22T05:04:46.620Z,18.06
2018-08-22T05:07:15.255Z,18.21
2018-08-22T05:09:43.885Z,18.38
2018-08-22T05:12:12.561Z,18.58
2018-08-22T05:14:41.223Z,18.80
2018-08-22T05:17:09.929Z,19.02
2018-08-22T05:19:38.664Z,19.33
2018-08-22T05:22:07.418Z,19.52
2018-08-22T05:24:36.159Z,19.84
2018-08-22T05:27:04.874Z,20.24
2018-08-22T05:29:33.506Z,20.05
2018-08-22T05:32:02.130Z,20.10
2018-08-22T05:34:30.745Z,20.29
2018-08-22T05:36:59.518Z,20.81
2018-08-22T05:39:28.238Z,20.57
2018-08-22T05:41:57.328Z,20.68
2018-08-22T05:44:26.066Z,20.67
2018-08-22T05:46:54.883Z,20.95
2018-08-22T05:49:23.587Z,20.93
2018-08-22T05:51:52.373Z,20.86
2018-08-22T05:54:21.177Z,21.12
2018-08-22T05:56:49.918Z,21.41
2018-08-22T05:59:18.564Z,21.47
2018-08-22T06:01:47.250Z,21.56
2018-08-22T06:04:15.892Z,21.62
2018-08-22T06:06:44.566Z,21.99
2018-08-22T06:09:13.591Z,22.28
2018-08-22T06:11:43.194Z,22.13
2018-08-22T06:14:12.319Z,22.25
2018-08-22T06:16:41.051Z,22.94
2018-08-22T06:19:09.925Z,22.64
2018-08-22T06:21:38.659Z,22.55
2018-08-22T06:24:07.438Z,22.90
2018-08-22T06:26:36.117Z,23.05
2018-08-22T06:29:04.781Z,23.28
2018-08-22T06:31:33.474Z,23.43
2018-08-22T06:34:02.229Z,23.48
2018-08-22T06:36:31.000Z,23.63
2018-08-22T06:39:00.338Z,23.60
2018-08-22T06:41:29.573Z,23.80
2018-08-22T06:43:58.396Z,24.15
2018-08-22T06:46:27.357Z,23.99
2018-08-22T06:48:56.134Z,24.07
2018-08-22T06:51:28.531Z,23.90
2018-08-22T06:53:57.343Z,24.07
2018-08-22T06:56:26.475Z,24.30
2018-08-22T06:58:55.798Z,24.57
2018-08-22T07:01:24.484Z,24.86
2018-08-22T07:03:53.683Z,25.28
2018-08-22T07:06:22.302Z,25.40
2018-08-22T07:08:50.924Z,25.19
2018-08-22T07:11:19.634Z,25.32
2018-08-22T07:13:48.399Z,25.49
2018-08-22T07:16:17.207Z,25.35
2018-08-22T07:18:46.059Z,26.03
2018-08-22T07:21:14.862Z,26.30
2018-08-22T07:23:43.643Z,26.42
2018-08-22T07:26:12.747Z,26.60
2018-08-22T07:28:41.511Z,26.74
2018-08-22T07:31:10.329Z,27.25
2018-08-22T07:33:39.094Z,27.65
2018-08-22T07:36:08.419Z,27.89
2018-08-22T07:38:37.196Z,28.14
2018-08-22T07:41:07.238Z,28.27
2018-08-22T07:43:36.139Z,28.48
2018-08-22T07:46:05.680Z,28.87
2018-08-22T07:48:34.986Z,29.35
2018-08-22T07:51:03.816Z,29.63
2018-08-22T07:53:33.242Z,29.94
2018-08-22T07:56:01.985Z,30.26
2018-08-22T07:58:30.733Z,30.37
2018-08-22T08:00:59.458Z,30.22
2018-08-22T08:03:28.233Z,30.44
2018-08-22T08:05:57.684Z,30.64
2018-08-22T08:08:26.426Z,30.87
2018-08-22T08:10:55.210Z,31.04
2018-08-22T08:13:28.851Z,31.12
2018-08-22T08:15:58.391Z,31.65
2018-08-22T08:18:27.423Z,31.77
2018-08-22T08:20:56.143Z,32.05
2018-08-22T08:23:24.823Z,32.26
2018-08-22T08:25:53.556Z,32.38
2018-08-22T08:28:22.291Z,32.57
2018-08-22T08:30:51.032Z,32.77
2018-08-22T08:33:19.749Z,32.94
2018-08-22T08:35:48.529Z,33.09
2018-08-22T08:38:17.214Z,33.37
2018-08-22T08:40:45.960Z,33.62
2018-08-22T08:43:14.688Z,33.86
2018-08-22T08:45:43.449Z,33.95
2018-08-22T08:48:12.072Z,33.81
2018-08-22T08:50:41.638Z,34.41
2018-08-22T08:53:10.336Z,34.56
2018-08-22T08:55:38.971Z,34.87
2018-08-22T08:58:08.359Z,34.71
2018-08-22T09:00:36.963Z,34.73
2018-08-22T09:03:05.598Z,35.16
2018-08-22T09:05:34.258Z,34.85
2018-08-22T09:08:02.978Z,34.95
2018-08-22T09:10:32.204Z,35.07
2018-08-22T09:13:00.868Z,34.81
2018-08-22T09:15:29.581Z,35.33
2018-08-22T09:17:58.206Z,35.56
2018-08-22T09:20:26.876Z,35.45
2018-08-22T09:22:55.545Z,35.76
2018-08-22T09:25:24.273Z,36.03
2018-08-22T09:27:53.066Z,36.21
2018-08-22T09:30:21.786Z,36.06
2018-08-22T09:32:50.528Z,36.49
2018-08-22T09:35:19.283Z,36.32
2018-08-22T09:37:48.045Z,36.33
2018-08-22T09:40:16.790Z,36.22
2018-08-22T09:42:45.573Z,36.25
2018-08-22T09:45:14.297Z,36.34
2018-08-22T09:47:43.896Z,36.66
2018-08-22T09:50:12.775Z,37.01
2018-08-22T09:52:41.539Z,36.81
2018-08-22T09:55:10.238Z,37.16
2018-08-22T09:57:38.869Z,37.39
2018-08-22T10:00:12.426Z,37.07
2018-08-22T10:02:41.045Z,37.02
2018-08-22T10:05:09.686Z,37.75
2018-08-22T10:07:38.297Z,37.36
2018-08-22T10:10:06.957Z,37.83
2018-08-22T10:12:35.636Z,37.56
2018-08-22T10:15:04.409Z,37.42
2018-08-22T10:17:33.086Z,37.64
2018-08-22T10:20:01.718Z,37.66
2018-08-22T10:22:30.326Z,37.52
2018-08-22T10:24:59.291Z,37.88
2018-08-22T10:27:27.919Z,37.30
2018-08-22T10:29:56.526Z,37.30
2018-08-22T10:32:25.152Z,37.64
2018-08-22T10:34:53.866Z,37.49
2018-08-22T10:37:22.754Z,38.03
2018-08-22T10:39:51.495Z,38.52
2018-08-22T10:42:20.401Z,38.65
2018-08-22T10:44:49.276Z,38.34
2018-08-22T10:47:17.944Z,38.74
2018-08-22T10:49:46.691Z,38.56
2018-08-22T10:52:15.845Z,38.37
2018-08-22T10:54:44.612Z,38.16
2018-08-22T10:57:13.367Z,38.72
2018-08-22T10:59:42.101Z,38.16
2018-08-22T11:02:10.864Z,37.72
2018-08-22T11:04:40.192Z,37.68
2018-08-22T11:07:08.820Z,37.66
2018-08-22T11:09:37.448Z,37.53
2018-08-22T11:12:06.082Z,37.96
2018-08-22T11:14:34.858Z,38.04
2018-08-22T11:17:03.534Z,38.87
2018-08-22T11:19:32.206Z,39.25
2018-08-22T11:22:17.659Z,39.12
2018-08-22T11:25:03.447Z,39.48
2018-08-22T11:27:48.844Z,39.59
2018-08-22T11:30:34.480Z,39.16
2018-08-22T11:33:19.876Z,39.00
2018-08-22T11:35:46.743Z,38.36
2018-08-22T11:38:15.536Z,38.06
2018-08-22T11:40:44.228Z,38.11
2018-08-22T11:43:12.921Z,37.51
2018-08-22T11:45:41.777Z,37.59
2018-08-22T11:48:10.967Z,37.35
2018-08-22T11:50:39.834Z,36.54
2018-08-22T11:53:08.625Z,36.65
2018-08-22T11:55:37.961Z,37.11
2018-08-22T11:58:06.726Z,37.37
2018-08-22T12:00:35.760Z,37.67
2018-08-22T12:03:04.461Z,38.20
2018-08-22T12:05:33.131Z,38.53
2018-08-22T12:08:01.831Z,38.30
2018-08-22T12:10:31.185Z,37.99
2018-08-22T12:13:02.326Z,37.88
2018-08-22T12:15:31.432Z,37.53
2018-08-22T12:18:00.067Z,37.60
2018-08-22T12:20:29.159Z,38.11
2018-08-22T12:22:58.796Z,37.82
2018-08-22T12:25:28.680Z,38.46
2018-08-22T12:27:57.470Z,39.11
2018-08-22T12:30:26.127Z,39.78
2018-08-22T12:32:55.322Z,40.14
2018-08-22T12:35:23.999Z,39.44
2018-08-22T12:37:52.769Z,39.59
2018-08-22T12:40:21.432Z,39.54
2018-08-22T12:42:50.131Z,38.80
2018-08-22T12:45:19.230Z,38.93
2018-08-22T12:47:47.930Z,39.64
2018-08-22T12:50:16.858Z,39.45
2018-08-22T12:52:45.594Z,39.71
2018-08-22T12:55:14.344Z,40.33
2018-08-22T12:57:43.140Z,40.16
2018-08-22T13:00:11.987Z,40.24
2018-08-22T13:02:40.759Z,40.39
2018-08-22T13:05:09.639Z,40.59
2018-08-22T13:07:38.457Z,41.60
2018-08-22T13:10:07.387Z,41.48
2018-08-22T13:12:36.374Z,40.77
2018-08-22T13:15:06.339Z,40.89
2018-08-22T13:17:35.520Z,41.64
2018-08-22T13:20:04.849Z,41.52
2018-08-22T13:22:33.751Z,41.66
2018-08-22T13:25:02.999Z,42.17
2018-08-22T13:27:31.884Z,42.51
2018-08-22T13:30:00.704Z,41.63
2018-08-22T13:32:29.988Z,39.91
2018-08-22T13:34:58.805Z,37.85
2018-08-22T13:37:27.642Z,36.86
2018-08-22T13:39:56.558Z,37.70
2018-08-22T13:42:25.639Z,37.12
2018-08-22T13:44:54.323Z,36.50
2018-08-22T13:47:23.006Z,35.86
2018-08-22T13:49:51.699Z,36.69
2018-08-22T13:52:20.546Z,37.78
2018-08-22T13:54:49.519Z,38.83
2018-08-22T13:57:18.417Z,39.59
2018-08-22T13:59:47.167Z,39.89
2018-08-22T14:02:16.599Z,39.62
2018-08-22T14:04:45.644Z,38.33
2018-08-22T14:07:14.289Z,37.02
2018-08-22T14:09:42.965Z,37.24
2018-08-22T14:12:12.082Z,34.38
2018-08-22T14:14:40.816Z,30.41
2018-08-22T14:17:10.107Z,29.28
2018-08-22T14:19:38.972Z,28.44
2018-08-22T14:22:07.634Z,27.93
2018-08-22T14:24:36.352Z,28.05
2018-08-22T14:27:05.240Z,28.56
2018-08-22T14:29:33.908Z,29.46
2018-08-22T14:32:02.589Z,29.11
2018-08-22T14:34:31.334Z,28.78
2018-08-22T14:36:59.999Z,27.65
2018-08-22T14:39:28.835Z,26.52
2018-08-22T14:41:57.567Z,25.41
2018-08-22T14:44:26.397Z,24.68
2018-08-22T14:46:55.002Z,24.51
2018-08-22T14:49:23.632Z,24.51
2018-08-22T14:51:52.328Z,24.26
2018-08-22T14:54:21.120Z,24.15
2018-08-22T14:56:50.478Z,24.22
2018-08-22T14:59:19.094Z,24.23
2018-08-22T15:01:47.845Z,24.90
2018-08-22T15:04:17.132Z,25.11
2018-08-22T15:06:45.896Z,25.21
2018-08-22T15:09:19.415Z,25.27
2018-08-22T15:11:49.198Z,25.21
2018-08-22T15:14:19.018Z,24.88
2018-08-22T15:16:47.703Z,24.70
2018-08-22T15:19:16.490Z,24.48
2018-08-22T15:21:45.250Z,24.23
2018-08-22T15:24:14.003Z,24.35
2018-08-22T15:26:42.849Z,24.27
2018-08-22T15:29:11.488Z,23.92
2018-08-22T15:31:40.163Z,23.71
2018-08-22T15:34:09.180Z,23.50
2018-08-22T15:36:37.893Z,23.28
2018-08-22T15:39:10.363Z,23.03
2018-08-22T15:41:39.923Z,22.93
2018-08-22T15:44:08.704Z,22.96
2018-08-22T15:46:37.516Z,23.00
2018-08-22T15:49:06.243Z,22.87
2018-08-22T15:51:35.377Z,22.76
2018-08-22T15:54:13.206Z,22.41
2018-08-22T15:56:42.089Z,22.39
2018-08-22T15:59:12.070Z,22.52
2018-08-22T16:01:40.871Z,22.76
2018-08-22T16:04:10.078Z,22.79
2018-08-22T16:06:38.898Z,22.81
2018-08-22T16:09:15.670Z,22.82
2018-08-22T16:11:45.185Z,22.73
2018-08-22T16:14:14.061Z,22.82
2018-08-22T16:16:42.884Z,22.85
2018-08-22T16:19:12.744Z,22.99
2018-08-22T16:21:41.494Z,23.12
2018-08-22T16:24:10.287Z,23.13
2018-08-22T16:26:39.069Z,23.06
2018-08-22T16:29:07.795Z,23.22
2018-08-22T16:31:42.149Z,23.07
2018-08-22T16:34:11.561Z,23.05
2018-08-22T16:36:40.371Z,22.84
2018-08-22T16:39:09.861Z,22.64
2018-08-22T16:41:38.806Z,22.66
2018-08-22T16:44:09.244Z,22.70
2018-08-22T16:46:38.116Z,22.73
2018-08-22T16:49:07.348Z,22.82
2018-08-22T16:51:36.038Z,22.93
2018-08-22T16:54:09.426Z,22.97
2018-08-22T16:56:38.311Z,23.10
2018-08-22T16:59:10.154Z,23.04
2018-08-22T17:01:41.587Z,23.06
2018-08-22T17:04:10.413Z,23.05
2018-08-22T17:06:39.288Z,23.21
2018-08-22T17:09:09.853Z,23.12
2018-08-22T17:11:39.049Z,22.98
2018-08-22T17:14:07.912Z,22.78
2018-08-22T17:16:36.569Z,22.66
2018-08-22T17:19:05.473Z,22.99
2018-08-22T17:21:34.716Z,23.27
2018-08-22T17:24:03.361Z,23.19
2018-08-22T17:26:32.018Z,23.14
2018-08-22T17:29:01.181Z,23.16
2018-08-22T17:31:30.300Z,23.31
2018-08-22T17:34:01.378Z,23.28
2018-08-22T17:36:30.046Z,23.23
2018-08-22T17:38:59.880Z,23.08
2018-08-22T17:41:29.650Z,23.00
2018-08-22T17:44:04.038Z,22.86
2018-08-22T17:46:36.609Z,22.61
2018-08-22T17:49:05.491Z,22.36
2018-08-22T17:52:37.283Z,22.24
2018-08-22T17:55:06.544Z,22.15
2018-08-22T17:57:35.292Z,22.00
2018-08-22T18:00:04.271Z,21.99
2018-08-22T18:02:32.986Z,21.93
2018-08-22T18:05:02.948Z,21.93
2018-08-22T18:07:31.623Z,21.93
2018-08-22T18:10:02.193Z,22.02
2018-08-22T18:12:31.044Z,22.05
2018-08-22T18:15:01.761Z,22.27
2018-08-22T18:17:30.561Z,22.30
2018-08-22T18:19:59.635Z,22.23
2018-08-22T18:22:33.120Z,22.25
2018-08-22T18:25:01.927Z,22.23
2018-08-22T18:27:30.660Z,22.15
2018-08-22T18:29:59.355Z,22.42
2018-08-22T18:32:28.048Z,22.22
2018-08-22T18:35:10.058Z,22.21
2018-08-22T18:37:39.469Z,21.93
2018-08-22T18:40:22.641Z,21.73
2018-08-22T18:42:57.057Z,21.61
2018-08-22T18:45:26.326Z,21.54
2018-08-22T18:47:55.018Z,21.51
2018-08-22T18:50:23.912Z,21.50
2018-08-22T18:53:00.506Z,21.51
2018-08-22T18:55:33.578Z,21.47
2018-08-22T18:58:04.316Z,21.53
2018-08-22T19:00:37.098Z,21.42
2018-08-22T19:03:05.927Z,21.39
2018-08-22T19:05:35.992Z,21.38
2018-08-22T19:08:13.841Z,21.56
2018-08-22T19:10:45.956Z,21.65
2018-08-22T19:13:17.962Z,21.65
2018-08-22T19:15:50.784Z,21.60
2018-08-22T19:18:19.509Z,21.59
2018-08-22T19:20:49.284Z,21.66
2018-08-22T19:23:17.969Z,21.69
2018-08-22T19:25:48.626Z,21.69
2018-08-22T19:28:18.307Z,21.70
2018-08-22T19:30:47.436Z,21.73
2018-08-22T19:33:20.182Z,21.63
2018-08-22T19:35:49.051Z,21.48
2018-08-22T19:38:20.126Z,21.42
2018-08-22T19:40:48.928Z,21.36
2018-08-22T19:43:17.682Z,21.33
2018-08-22T19:45:46.464Z,21.33
2018-08-22T19:48:15.099Z,21.31
2018-08-22T19:50:43.764Z,21.28
2018-08-22T19:53:13.364Z,21.23
2018-08-22T19:55:42.107Z,21.16
2018-08-22T19:58:11.454Z,21.16
2018-08-22T20:00:40.284Z,21.12
2018-08-22T20:03:09.237Z,21.14
2018-08-22T20:05:52.670Z,21.12
2018-08-22T20:08:27.016Z,21.10
2018-08-22T20:10:57.088Z,21.13
2018-08-22T20:13:37.763Z,21.11
2018-08-22T20:16:06.787Z,21.21
2018-08-22T20:18:36.285Z,21.31
2018-08-22T20:21:05.214Z,21.40
2018-08-22T20:23:34.041Z,21.30
2018-08-22T20:26:03.239Z,21.38
2018-08-22T20:28:33.292Z,21.28
2018-08-22T20:31:06.767Z,21.20
2018-08-22T20:33:36.162Z,21.16
2018-08-22T20:36:05.646Z,21.09
2018-08-22T20:38:34.856Z,20.95
2018-08-22T20:41:08.619Z,20.87
2018-08-22T20:43:37.459Z,20.80
2018-08-22T20:46:06.342Z,20.71
2018-08-22T20:48:36.172Z,20.62
2018-08-22T20:51:05.044Z,20.58
2018-08-22T20:53:33.782Z,20.49
2018-08-22T20:56:02.676Z,20.40
2018-08-22T20:58:31.446Z,20.34
2018-08-22T21:01:00.679Z,20.28
2018-08-22T21:03:29.458Z,20.23
2018-08-22T21:05:58.998Z,20.14
2018-08-22T21:08:28.782Z,20.06
2018-08-22T21:10:57.507Z,20.04
2018-08-22T21:13:28.658Z,20.08
2018-08-22T21:15:57.921Z,20.25
2018-08-22T21:18:26.903Z,20.23
2018-08-22T21:20:56.344Z,20.26
2018-08-22T21:23:25.913Z,20.23
2018-08-22T21:25:54.736Z,20.20
2018-08-22T21:28:29.818Z,20.23
2018-08-22T21:30:59.818Z,20.21
2018-08-22T21:33:29.685Z,20.14
2018-08-22T21:35:58.484Z,20.00
2018-08-22T21:38:27.498Z,19.97
2018-08-22T21:40:56.225Z,19.87
2018-08-22T21:43:25.006Z,19.37
2018-08-22T21:45:53.637Z,19.81
2018-08-22T21:48:25.964Z,19.82
2018-08-22T21:50:54.695Z,19.87
2018-08-22T21:53:23.978Z,19.85
2018-08-22T21:55:53.300Z,19.81
2018-08-22T21:58:22.172Z,19.88
2018-08-22T22:00:50.833Z,19.83
2018-08-22T22:03:25.831Z,20.15
2018-08-22T22:06:01.009Z,20.01
2018-08-22T22:08:29.898Z,20.22
2018-08-22T22:11:04.000Z,20.21
2018-08-22T22:13:32.956Z,20.14
2018-08-22T22:16:04.172Z,20.43
2018-08-22T22:18:34.037Z,20.32
2018-08-22T22:21:12.936Z,20.16
2018-08-22T22:23:47.842Z,20.04
2018-08-22T22:26:18.425Z,20.08
2018-08-22T22:28:47.140Z,20.18
2018-08-22T22:31:17.154Z,20.17
2018-08-22T22:33:57.265Z,19.98
2018-08-22T22:36:26.693Z,19.91
2018-08-22T22:38:55.380Z,19.77
2018-08-22T22:41:27.798Z,19.70
2018-08-22T22:43:56.610Z,19.70
2018-08-22T22:46:25.415Z,19.65
2018-08-22T22:48:54.306Z,19.67
2018-08-22T22:51:23.221Z,19.65
2018-08-22T22:53:52.061Z,19.67
2018-08-22T22:56:20.948Z,19.64
2018-08-22T22:58:49.673Z,19.51
2018-08-22T23:01:18.436Z,19.48
2018-08-22T23:03:47.256Z,19.50
2018-08-22T23:06:16.085Z,19.48
2018-08-22T23:08:45.721Z,19.49
2018-08-22T23:11:14.547Z,19.44
2018-08-22T23:13:43.330Z,19.43
2018-08-22T23:16:12.128Z,19.43
2018-08-22T23:18:40.943Z,19.37
2018-08-22T23:21:09.710Z,19.30
2018-08-22T23:23:38.771Z,19.30
2018-08-22T23:26:18.922Z,19.20
2018-08-22T23:28:47.746Z,19.11
2018-08-22T23:31:19.036Z,19.12
2018-08-22T23:33:47.955Z,19.23
2018-08-22T23:36:16.747Z,19.13
2018-08-22T23:38:45.527Z,19.08
2018-08-22T23:41:14.230Z,19.08
2018-08-22T23:43:50.514Z,19.02
2018-08-22T23:46:19.434Z,18.93
2018-08-22T23:48:55.167Z,18.86
2018-08-22T23:51:23.960Z,18.86
2018-08-22T23:53:56.322Z,18.80
2018-08-22T23:56:26.172Z,18.76
2018-08-22T23:58:55.601Z,18.74
